Pagina principale
METAR-TAF:

METAR-TAF

Aeroporti :

Venezia, Italia

Aeroporto di Venezia-Tessera

latitudine: 45-30N, longitudine: 012-20E, altezza: 2 m

Osservazione

Il bollettino è stato emesso 32 minuti fa, alle 15:20 UTC
Vento 2 kt da direzioni variabili
Temperature 9°C
Umidità 71%
Pressione 1011 hPa
Visibilità 10 km o più
nessuna nube inferiore a 1500 m e nessun cumulonembo

METAR: LIPZ 191520Z VRB02KT CAVOK 09/04 Q1011 NOSIG

Ora: 16:52 (15:52 UTC)

Previsione

Il bollettino è stato emesso 4 ore e 52 minuti fa, alle 11:00 UTC
Previsione valida dal 19 alle 12 UTC al 20 alle 18 UTC
Vento 6 kt da direzioni variabili
Visibilità 10 km o più
nessuna nube inferiore a 1500 m e nessun cumulonembo
Temporaneamente
dal 19 alle 22 UTC al 20 alle 07 UTC
Visibilità: 3000 m
foschia
Evoluzione graduale
dal 20 alle 09 UTC al 20 alle 11 UTC
Vento 10 kt da nord/nord-est

TAF: LIPZ 191100Z 1912/2018 VRB06KT CAVOK TEMPO 1922/2007 3000 BR BECMG 2009/2011 03010KT

Osservazioni e previsioni meteorologiche di più di 4000 aeroporti (messaggi METAR e TAF).

Le stazioni disponibili sono rappresentate dai dischi gialli e rossi sulla carta.

Puntare il mouse per vedere il nome della stazione.

Clicca sopra per visualizzare le osservazioni e previsioni meteorologiche.

Per cambiare la mappa : fare clic sui pulsanti verdi con una croce nera per ingrandire, il pulsante verde con un trattino per diminuire, o sulla freccia verde per le mappe adiacenti.


METAR-TAF: